| time (UTC) | temp C | wind direction | speed KPH | gust KPH | rain 1hr cm | rain 24hr cm | rain mn cm | humidity % | barometer mb |
| 20260509175604 | 30 | 246 | 1.6 | 6.4 | 0.00 | 0.00 | 1.55 | 64 | 1008.7 |
| 20260509175104 | 29 | 135 | 3.2 | 8.0 | 0.00 | 0.00 | 1.55 | 62 | 1008.6 |
| 20260509174604 | 28 | 219 | 3.2 | 9.7 | 0.00 | 0.00 | 1.55 | 63 | 1008.6 |
| 20260509174104 | 28 | 277 | 3.2 | 9.7 | 0.00 | 0.00 | 1.55 | 65 | 1008.7 |
| 20260509173604 | 28 | 111 | 3.2 | 6.4 | 0.00 | 0.00 | 1.55 | 65 | 1008.6 |
| 20260509172101 | 28 | 186 | 3.2 | 6.4 | 0.00 | 0.00 | 1.55 | 69 | 1008.7 |
| 20260509171559 | 27 | 240 | 3.2 | 8.0 | 0.00 | 0.00 | 1.55 | 70 | 1008.8 |
| 20260509171059 | 28 | 269 | 3.2 | 9.7 | 0.00 | 0.00 | 1.55 | 69 | 1008.9 |
| 20260509170100 | 27 | 177 | 4.8 | 11.3 | 0.00 | 0.00 | 1.55 | 72 | 1009.1 |
| 20260509165059 | 27 | 315 | 3.2 | 9.7 | 0.00 | 0.00 | 1.55 | 70 | 1009.1 |
| 20260509163559 | 26 | 333 | 3.2 | 9.7 | 0.00 | 0.00 | 1.55 | 75 | 1009.3 |
| 20260509163059 | 26 | 310 | 4.8 | 9.7 | 0.00 | 0.00 | 1.55 | 74 | 1009.4 |
| 20260509161554 | 25 | 311 | 4.8 | 9.7 | 0.00 | 0.00 | 1.55 | 79 | 1009.6 |
| 20260509161050 | 25 | 321 | 4.8 | 9.7 | 0.00 | 0.00 | 1.55 | 79 | 1009.4 |
| 20260509160051 | 25 | 270 | 4.8 | 9.7 | 0.00 | 0.00 | 1.55 | 79 | 1009.6 |
| 20260509155551 | 25 | 309 | 3.2 | 8.0 | 0.00 | 0.00 | 1.55 | 79 | 1009.5 |
| 20260509155051 | 24 | 0 | 3.2 | 6.4 | 0.00 | 0.00 | 1.55 | 83 | 1009.4 |
| 20260509154548 | 24 | 270 | 3.2 | 6.4 | 0.00 | 0.00 | 1.55 | 83 | 1009.3 |
| 20260509154048 | 23 | 298 | 3.2 | 6.4 | 0.00 | 0.00 | 1.55 | 84 | 1009.5 |
| 20260509153548 | 23 | 253 | 3.2 | 4.8 | 0.00 | 0.00 | 1.55 | 87 | 1009.6 |
| 20260509153045 | 23 | 301 | 3.2 | 6.4 | 0.00 | 0.00 | 1.55 | 88 | 1009.6 |
| 20260509152547 | 23 | 274 | 3.2 | 6.4 | 0.00 | 0.00 | 1.55 | 90 | 1009.5 |
| 20260509152050 | 22 | 304 | 1.6 | 3.2 | 0.00 | 0.00 | 1.55 | 93 | 1009.2 |
| 20260509151547 | 22 | 317 | 1.6 | 4.8 | 0.00 | 0.00 | 1.55 | 95 | 1008.9 |
| 20260509151044 | 22 | 316 | 1.6 | 4.8 | 0.00 | 0.00 | 1.55 | 95 | 1008.8 |
| 20260509150544 | 22 | 316 | 1.6 | 3.2 | 0.00 | 0.00 | 1.55 | 95 | 1008.7 |
| 20260509150044 | 22 | 316 | 1.6 | 3.2 | 0.00 | 0.00 | 1.55 | 96 | 1008.7 |
| 20260509145544 | 21 | 316 | 1.6 | 3.2 | 0.00 | 0.00 | 1.55 | 96 | 1008.8 |
| 20260509145044 | 21 | 316 | 1.6 | 3.2 | 0.00 | 0.00 | 1.55 | 96 | 1008.8 |
| 20260509144544 | 21 | 316 | 1.6 | 3.2 | 0.00 | 0.00 | 1.55 | 96 | 1008.9 |
| 20260509143544 | 21 | 324 | 3.2 | 3.2 | 0.00 | 0.00 | 1.55 | 96 | 1009.1 |
| 20260509143044 | 21 | 315 | 3.2 | 3.2 | 0.00 | 0.00 | 1.55 | 95 | 1009.2 |
| 20260509142544 | 21 | 319 | 3.2 | 3.2 | 0.00 | 0.00 | 1.55 | 95 | 1009.5 |
| 20260509141545 | 21 | 329 | 3.2 | 8.0 | 0.00 | 0.00 | 1.55 | 95 | 1009.3 |
| 20260509141044 | 21 | 312 | 4.8 | 8.0 | 0.00 | 0.00 | 1.55 | 94 | 1008.9 |
| 20260509140534 | 21 | 119 | 4.8 | 8.0 | 0.00 | 0.00 | 1.55 | 95 | 1008.5 |
| 20260509135531 | 21 | 145 | 6.4 | 8.0 | 0.00 | 0.00 | 1.55 | 95 | 1007.9 |
| 20260509135022 | 21 | 128 | 6.4 | 8.0 | 0.00 | 0.00 | 1.55 | 95 | 1008.3 |
| 20260509134526 | 21 | 140 | 6.4 | 8.0 | 0.00 | 0.00 | 1.55 | 95 | 1008.5 |
| 20260509134018 | 21 | 146 | 6.4 | 8.0 | 0.00 | 0.00 | 1.55 | 95 | 1008.6 |
| 20260509133526 | 21 | 131 | 6.4 | 8.0 | 0.00 | 0.00 | 1.55 | 95 | 1009.0 |
| 20260509133018 | 21 | 323 | 6.4 | 8.0 | 0.00 | 0.00 | 1.55 | 95 | 1009.1 |
| 20260509132526 | 21 | 144 | 6.4 | 8.0 | 0.00 | 0.00 | 1.55 | 95 | 1009.1 |
| 20260509132019 | 21 | 132 | 6.4 | 8.0 | 0.00 | 0.00 | 1.55 | 94 | 1008.0 |
| 20260509131539 | 21 | 138 | 6.4 | 8.0 | 0.00 | 0.00 | 1.55 | 95 | 1008.0 |
| 20260509130523 | 21 | 129 | 6.4 | 6.4 | 0.00 | 0.00 | 1.55 | 93 | 1007.6 |
| 20260509130035 | 21 | 135 | 6.4 | 8.0 | 0.25 | 1.55 | 1.55 | 94 | 1007.6 |
| 20260509125534 | 21 | 133 | 6.4 | 8.0 | 0.30 | 1.55 | 1.55 | 93 | 1007.6 |
| 20260509125032 | 21 | 147 | 6.4 | 12.9 | 0.33 | 1.55 | 1.55 | 93 | 1008.0 |
| 20260509124530 | 21 | 129 | 8.0 | 16.1 | 0.36 | 1.55 | 1.55 | 93 | 1007.5 |
| 20260509124029 | 21 | 124 | 9.7 | 16.1 | 0.41 | 1.55 | 1.55 | 94 | 1007.5 |
| 20260509123531 | 20 | 132 | 9.7 | 20.9 | 0.43 | 1.55 | 1.55 | 95 | 1006.8 |
| 20260509123029 | 20 | 132 | 12.9 | 20.9 | 0.43 | 1.55 | 1.55 | 95 | 1006.3 |
| 20260509122530 | 20 | 133 | 12.9 | 20.9 | 0.48 | 1.52 | 1.55 | 95 | 1006.0 |
| 20260509122030 | 21 | 134 | 11.3 | 16.1 | 0.51 | 1.50 | 1.50 | 96 | 1006.1 |
| 20260509121528 | 21 | 132 | 12.9 | 16.1 | 0.51 | 1.45 | 1.45 | 96 | 1007.3 |
| 20260509120527 | 22 | 131 | 11.3 | 17.7 | 0.41 | 1.35 | 1.35 | 97 | 1008.1 |
| 20260509115024 | 21 | 113 | 9.7 | 16.1 | 0.28 | 1.22 | 1.22 | 97 | 1008.1 |
| 20260509114528 | 21 | 124 | 8.0 | 12.9 | 0.28 | 1.19 | 1.19 | 96 | 1008.7 |
| 20260509113528 | 21 | 140 | 8.0 | 11.3 | 0.30 | 1.12 | 1.12 | 96 | 1009.3 |
| 20260509112528 | 21 | 161 | 9.7 | 11.3 | 0.33 | 1.04 | 1.04 | 95 | 1009.5 |
| 20260509112023 | 21 | 146 | 8.0 | 11.3 | 0.36 | 0.99 | 0.99 | 95 | 1009.5 |
| 20260509111528 | 21 | 151 | 8.0 | 12.9 | 0.38 | 0.97 | 0.97 | 96 | 1009.0 |
| 20260509111025 | 21 | 124 | 8.0 | 12.9 | 0.43 | 0.94 | 0.94 | 96 | 1008.9 |
| 20260509110529 | 22 | 143 | 6.4 | 12.9 | 0.48 | 0.94 | 0.94 | 96 | 1009.0 |
| 20260509110024 | 22 | 142 | 8.0 | 12.9 | 0.53 | 0.94 | 0.94 | 96 | 1009.0 |
| 20260509105018 | 22 | 128 | 8.0 | 11.3 | 0.61 | 0.94 | 0.94 | 96 | 1009.1 |
| 20260509104524 | 22 | 114 | 8.0 | 11.3 | 0.66 | 0.91 | 0.91 | 96 | 1009.1 |
| 20260509104020 | 22 | 140 | 6.4 | 11.3 | 0.66 | 0.89 | 0.89 | 96 | 1009.4 |
| 20260509103021 | 22 | 145 | 6.4 | 9.7 | 0.69 | 0.76 | 0.76 | 96 | 1009.5 |
| 20260509101510 | 22 | 145 | 3.2 | 6.4 | 0.56 | 0.56 | 0.56 | 96 | 1009.9 |
| 20260509101006 | 22 | 148 | 3.2 | 4.8 | 0.51 | 0.51 | 0.51 | 96 | 1009.8 |
| 20260509095959 | 22 | 146 | 4.8 | 9.7 | 0.38 | 0.41 | 0.41 | 96 | 1009.9 |
| 20260509095450 | 23 | 164 | 6.4 | 11.3 | 0.33 | 0.36 | 0.36 | 96 | 1010.1 |
| 20260509094949 | 24 | 161 | 6.4 | 11.3 | 0.30 | 0.33 | 0.33 | 97 | 1010.1 |
| 20260509094449 | 24 | 161 | 6.4 | 11.3 | 0.25 | 0.28 | 0.28 | 97 | 1010.0 |
| 20260509093948 | 24 | 109 | 4.8 | 8.0 | 0.20 | 0.20 | 0.20 | 97 | 1010.1 |
| 20260509093452 | 24 | 162 | 4.8 | 8.0 | 0.15 | 0.18 | 0.18 | 96 | 1010.1 |
| 20260509092947 | 24 | 190 | 4.8 | 8.0 | 0.08 | 0.08 | 0.08 | 96 | 1009.9 |
| 20260509091947 | 25 | 167 | 4.8 | 6.4 | 0.03 | 0.03 | 0.03 | 94 | 1008.9 |
| 20260509091452 | 25 | 167 | 4.8 | 6.4 | 0.00 | 0.00 | 0.00 | 94 | 1008.0 |
| 20260509090447 | 25 | 137 | 4.8 | 8.0 | 0.00 | 0.00 | 0.00 | 94 | 1007.2 |
| 20260509085946 | 25 | 129 | 4.8 | 6.4 | 0.00 | 0.00 | 0.00 | 94 | 1006.8 |
| 20260509084937 | 24 | 147 | 6.4 | 9.7 | 0.00 | 0.00 | 0.00 | 95 | 1006.9 |
| 20260509084437 | 24 | 162 | 6.4 | 9.7 | 0.00 | 0.00 | 0.00 | 95 | 1006.5 |
| 20260509083937 | 25 | 158 | 6.4 | 9.7 | 0.00 | 0.00 | 0.00 | 95 | 1006.1 |
| 20260509083436 | 25 | 96 | 4.8 | 9.7 | 0.00 | 0.00 | 0.00 | 95 | 1006.2 |
| 20260509082937 | 25 | 93 | 4.8 | 9.7 | 0.00 | 0.00 | 0.00 | 95 | 1006.2 |
| 20260509082434 | 25 | 175 | 4.8 | 6.4 | 0.00 | 0.00 | 0.00 | 95 | 1006.0 |
| 20260509081934 | 25 | 127 | 3.2 | 6.4 | 0.00 | 0.00 | 0.00 | 94 | 1006.4 |
| 20260509081435 | 25 | 130 | 3.2 | 4.8 | 0.00 | 0.00 | 0.00 | 94 | 1006.6 |
| 20260509080934 | 25 | 110 | 3.2 | 8.0 | 0.00 | 0.00 | 0.00 | 94 | 1007.0 |
| 20260509080428 | 25 | 168 | 4.8 | 8.0 | 0.00 | 0.00 | 0.00 | 94 | 1007.0 |
| 20260509075910 | 25 | 114 | 4.8 | 8.0 | 0.00 | 0.00 | 0.00 | 94 | 1006.9 |
| 20260509075409 | 25 | 167 | 4.8 | 8.0 | 0.00 | 0.00 | 0.00 | 94 | 1007.1 |
| 20260509074406 | 25 | 129 | 4.8 | 6.4 | 0.00 | 0.00 | 0.00 | 94 | 1007.2 |
| 20260509073906 | 25 | 120 | 3.2 | 6.4 | 0.00 | 0.00 | 0.00 | 94 | 1007.3 |
| 20260509073406 | 25 | 84 | 4.8 | 6.4 | 0.00 | 0.00 | 0.00 | 94 | 1007.5 |
| 20260509072906 | 25 | 135 | 4.8 | 6.4 | 0.00 | 0.00 | 0.00 | 94 | 1007.3 |
| 20260509072406 | 25 | 135 | 3.2 | 6.4 | 0.00 | 0.00 | 0.00 | 94 | 1007.5 |
| 20260509071906 | 25 | 86 | 3.2 | 6.4 | 0.00 | 0.00 | 0.00 | 93 | 1007.8 |
| 20260509071406 | 25 | 73 | 3.2 | 3.2 | 0.00 | 0.00 | 0.00 | 93 | 1007.8 |
| 20260509070413 | 25 | 112 | 3.2 | 4.8 | 0.00 | 0.00 | 0.00 | 94 | 1008.1 |
| 20260509065906 | 25 | 124 | 3.2 | 4.8 | 0.00 | 0.00 | 0.00 | 94 | 1008.1 |
| 20260509065406 | 25 | 158 | 3.2 | 4.8 | 0.00 | 0.00 | 0.00 | 94 | 1008.1 |
| 20260509064906 | 25 | 88 | 3.2 | 6.4 | 0.00 | 0.00 | 0.00 | 94 | 1008.1 |
| 20260509064351 | 25 | 133 | 3.2 | 6.4 | 0.00 | 0.00 | 0.00 | 94 | 1008.0 |
| 20260509063351 | 25 | 80 | 4.8 | 8.0 | 0.00 | 0.00 | 0.00 | 93 | 1007.6 |
| 20260509062852 | 25 | 110 | 3.2 | 8.0 | 0.00 | 0.00 | 0.00 | 93 | 1007.6 |
| 20260509062352 | 25 | 87 | 3.2 | 6.4 | 0.00 | 0.00 | 0.00 | 93 | 1008.0 |
| 20260509061852 | 25 | 89 | 3.2 | 6.4 | 0.00 | 0.00 | 0.00 | 93 | 1007.9 |
| 20260509061352 | 25 | 155 | 3.2 | 6.4 | 0.00 | 0.00 | 0.00 | 93 | 1007.7 |
| 20260509060852 | 25 | 131 | 3.2 | 6.4 | 0.00 | 0.00 | 0.00 | 93 | 1007.4 |
| 20260509060353 | 25 | 40 | 3.2 | 4.8 | 0.00 | 0.00 | 0.00 | 93 | 1007.6 |
| 20260509055852 | 25 | 53 | 3.2 | 6.4 | 0.00 | 0.00 | 0.00 | 92 | 1007.6 |
| 20260509055353 | 25 | 243 | 3.2 | 6.4 | 0.00 | 0.00 | 0.00 | 92 | 1007.6 |
| 20260509054853 | 25 | 101 | 4.8 | 8.0 | 0.00 | 0.00 | 0.00 | 91 | 1007.4 |
| 20260509053839 | 25 | 70 | 3.2 | 9.7 | 0.00 | 0.00 | 0.00 | 91 | 1007.3 |
| 20260509053340 | 25 | 42 | 4.8 | 12.9 | 0.00 | 0.00 | 0.00 | 91 | 1007.4 |
| 20260509051840 | 25 | 164 | 3.2 | 9.7 | 0.00 | 0.00 | 0.00 | 90 | 1008.1 |
| 20260509051340 | 25 | 87 | 3.2 | 9.7 | 0.00 | 0.00 | 0.00 | 90 | 1008.0 |
| 20260509050840 | 26 | 113 | 3.2 | 9.7 | 0.00 | 0.00 | 0.00 | 90 | 1007.6 |
| 20260509050340 | 26 | 136 | 3.2 | 8.0 | 0.00 | 0.00 | 0.00 | 89 | 1007.7 |
| 20260509045840 | 26 | 156 | 1.6 | 6.4 | 0.00 | 0.00 | 0.00 | 89 | 1008.1 |
| 20260509045339 | 26 | 146 | 1.6 | 3.2 | 0.00 | 0.00 | 0.00 | 89 | 1008.3 |
| 20260509044840 | 26 | 254 | 1.6 | 3.2 | 0.00 | 0.00 | 0.00 | 89 | 1008.3 |
| 20260509043337 | 26 | 115 | 3.2 | 9.7 | 0.00 | 0.00 | 0.00 | 89 | 1007.8 |
| 20260509042837 | 26 | 128 | 3.2 | 9.7 | 0.00 | 0.00 | 0.00 | 88 | 1007.8 |
| 20260509042337 | 26 | 120 | 3.2 | 6.4 | 0.00 | 0.00 | 0.00 | 88 | 1007.6 |
| 20260509041837 | 26 | 148 | 3.2 | 8.0 | 0.00 | 0.00 | 0.00 | 88 | 1007.7 |
| 20260509041338 | 26 | 94 | 3.2 | 8.0 | 0.00 | 0.00 | 0.00 | 88 | 1007.7 |
| 20260509040837 | 26 | 122 | 1.6 | 4.8 | 0.00 | 0.00 | 0.00 | 89 | 1007.8 |
| 20260509035838 | 26 | 143 | 3.2 | 6.4 | 0.00 | 0.00 | 0.00 | 89 | 1007.5 |
| 20260509034837 | 26 | 104 | 3.2 | 8.0 | 0.00 | 0.00 | 0.00 | 89 | 1007.1 |
| 20260509034338 | 26 | 113 | 3.2 | 8.0 | 0.00 | 0.00 | 0.00 | 89 | 1007.2 |
| 20260509033835 | 26 | 99 | 3.2 | 6.4 | 0.00 | 0.00 | 0.00 | 89 | 1007.3 |
| 20260509033335 | 26 | 101 | 3.2 | 6.4 | 0.00 | 0.00 | 0.00 | 89 | 1007.4 |
| 20260509032835 | 26 | 146 | 1.6 | 4.8 | 0.00 | 0.00 | 0.00 | 89 | 1007.4 |
| 20260509032335 | 26 | 174 | 1.6 | 6.4 | 0.00 | 0.00 | 0.00 | 89 | 1007.4 |
| 20260509031836 | 26 | 173 | 1.6 | 6.4 | 0.00 | 0.00 | 0.00 | 89 | 1007.2 |
| 20260509031337 | 26 | 163 | 1.6 | 3.2 | 0.00 | 0.00 | 0.00 | 90 | 1007.3 |
| 20260509030837 | 26 | 162 | 1.6 | 4.8 | 0.00 | 0.00 | 0.00 | 90 | 1007.3 |
| 20260509025837 | 26 | 152 | 1.6 | 3.2 | 0.00 | 0.00 | 0.00 | 90 | 1007.0 |
| 20260509025337 | 26 | 163 | 1.6 | 3.2 | 0.00 | 0.00 | 0.00 | 89 | 1006.9 |
| 20260509024837 | 26 | 157 | 1.6 | 4.8 | 0.00 | 0.00 | 0.00 | 89 | 1006.8 |
| 20260509024337 | 26 | 143 | 1.6 | 4.8 | 0.00 | 0.00 | 0.00 | 89 | 1006.7 |
| 20260509023837 | 26 | 164 | 1.6 | 4.8 | 0.00 | 0.00 | 0.00 | 89 | 1006.6 |
| 20260509023337 | 26 | 107 | 1.6 | 4.8 | 0.00 | 0.00 | 0.00 | 89 | 1006.5 |
| 20260509022833 | 26 | 144 | 1.6 | 4.8 | 0.00 | 0.00 | 0.00 | 89 | 1006.4 |
| 20260509022331 | 26 | 121 | 1.6 | 4.8 | 0.00 | 0.00 | 0.00 | 89 | 1006.4 |
| 20260509021828 | 26 | 137 | 1.6 | 4.8 | 0.00 | 0.00 | 0.00 | 89 | 1006.3 |
| 20260509021327 | 26 | 125 | 1.6 | 4.8 | 0.00 | 0.00 | 0.00 | 89 | 1006.2 |
| 20260509020827 | 26 | 159 | 3.2 | 8.0 | 0.00 | 0.00 | 0.00 | 89 | 1006.3 |
| 20260509020327 | 26 | 106 | 1.6 | 8.0 | 0.00 | 0.00 | 0.00 | 89 | 1006.2 |
| 20260509015825 | 26 | 171 | 3.2 | 6.4 | 0.00 | 0.00 | 0.00 | 89 | 1006.1 |
| 20260509014824 | 26 | 108 | 3.2 | 6.4 | 0.00 | 0.00 | 0.00 | 89 | 1005.9 |
| 20260509014324 | 26 | 89 | 3.2 | 6.4 | 0.00 | 0.00 | 0.00 | 89 | 1005.7 |
| 20260509013824 | 27 | 158 | 3.2 | 9.7 | 0.00 | 0.00 | 0.00 | 89 | 1005.8 |
| 20260509013325 | 27 | 141 | 3.2 | 9.7 | 0.00 | 0.00 | 0.00 | 89 | 1005.5 |
| 20260509012824 | 27 | 114 | 3.2 | 6.4 | 0.00 | 0.00 | 0.00 | 88 | 1005.5 |
| 20260509012325 | 27 | 137 | 1.6 | 6.4 | 0.00 | 0.00 | 0.00 | 88 | 1005.6 |
| 20260509011825 | 27 | 110 | 3.2 | 11.3 | 0.00 | 0.00 | 0.00 | 88 | 1005.5 |
| 20260509011322 | 27 | 142 | 3.2 | 11.3 | 0.00 | 0.00 | 0.00 | 88 | 1005.5 |
| 20260509010822 | 27 | 135 | 3.2 | 8.0 | 0.00 | 0.00 | 0.00 | 88 | 1005.4 |
| 20260509010322 | 27 | 83 | 3.2 | 11.3 | 0.00 | 0.00 | 0.00 | 88 | 1005.2 |
| 20260509005822 | 27 | 125 | 3.2 | 11.3 | 0.00 | 0.00 | 0.00 | 88 | 1005.1 |
| 20260509005322 | 27 | 158 | 3.2 | 9.7 | 0.00 | 0.00 | 0.00 | 88 | 1005.0 |
| 20260509004823 | 27 | 183 | 3.2 | 9.7 | 0.00 | 0.00 | 0.00 | 88 | 1005.0 |
| 20260509004322 | 27 | 132 | 4.8 | 9.7 | 0.00 | 0.00 | 0.00 | 88 | 1004.9 |
| 20260509003820 | 27 | 102 | 3.2 | 11.3 | 0.00 | 0.00 | 0.00 | 87 | 1005.0 |
| 20260509003320 | 27 | 116 | 4.8 | 11.3 | 0.00 | 0.00 | 0.00 | 87 | 1005.0 |
| 20260509002819 | 27 | 77 | 4.8 | 16.1 | 0.00 | 0.00 | 0.00 | 87 | 1004.9 |
| 20260509001820 | 27 | 115 | 4.8 | 9.7 | 0.00 | 0.00 | 0.00 | 86 | 1005.1 |
| 20260509000819 | 27 | 86 | 4.8 | 9.7 | 0.00 | 0.00 | 0.00 | 86 | 1005.2 |
| 20260509000320 | 28 | 131 | 3.2 | 9.7 | 0.00 | 0.00 | 0.00 | 85 | 1005.0 |
| 20260508235820 | 28 | 106 | 3.2 | 9.7 | 0.00 | 0.00 | 0.00 | 84 | 1005.1 |
| 20260508235320 | 28 | 117 | 3.2 | 11.3 | 0.00 | 0.00 | 0.00 | 84 | 1005.2 |
| 20260508234817 | 28 | 65 | 4.8 | 11.3 | 0.00 | 0.00 | 0.00 | 84 | 1005.1 |
| 20260508234318 | 28 | 149 | 4.8 | 11.3 | 0.00 | 0.00 | 0.00 | 84 | 1005.1 |
| 20260508233817 | 28 | 94 | 4.8 | 12.9 | 0.00 | 0.00 | 0.00 | 84 | 1005.1 |
| 20260508233318 | 28 | 122 | 4.8 | 12.9 | 0.00 | 0.00 | 0.00 | 83 | 1005.0 |
| 20260508232817 | 28 | 137 | 4.8 | 12.9 | 0.00 | 0.00 | 0.00 | 83 | 1005.0 |
| 20260508232314 | 28 | 103 | 4.8 | 12.9 | 0.00 | 0.00 | 0.00 | 82 | 1005.0 |
| 20260508231814 | 28 | 136 | 3.2 | 9.7 | 0.00 | 0.00 | 0.00 | 81 | 1005.2 |
| 20260508231315 | 28 | 85 | 3.2 | 12.9 | 0.00 | 0.00 | 0.00 | 81 | 1005.2 |
| 20260508230314 | 29 | 136 | 3.2 | 11.3 | 0.00 | 0.00 | 0.00 | 80 | 1005.1 |
| 20260508225315 | 29 | 127 | 6.4 | 11.3 | 0.00 | 0.00 | 0.00 | 79 | 1005.2 |
| 20260508223309 | 30 | 144 | 4.8 | 12.9 | 0.00 | 0.00 | 0.00 | 77 | 1005.2 |
| 20260508222309 | 30 | 147 | 4.8 | 12.9 | 0.00 | 0.00 | 0.00 | 77 | 1005.3 |
| 20260508221809 | 30 | 150 | 4.8 | 12.9 | 0.00 | 0.00 | 0.00 | 76 | 1005.3 |
| 20260508221309 | 30 | 165 | 4.8 | 16.1 | 0.00 | 0.00 | 0.00 | 77 | 1005.4 |
| 20260508220309 | 30 | 86 | 4.8 | 14.5 | 0.00 | 0.00 | 0.00 | 75 | 1005.5 |
| 20260508215810 | 30 | 105 | 4.8 | 11.3 | 0.00 | 0.00 | 0.00 | 74 | 1005.4 |
| 20260508215310 | 30 | 95 | 4.8 | 11.3 | 0.00 | 0.00 | 0.00 | 74 | 1005.6 |
| 20260508214809 | 30 | 130 | 4.8 | 12.9 | 0.00 | 0.00 | 0.00 | 74 | 1005.6 |
| 20260508214310 | 30 | 98 | 3.2 | 12.9 | 0.00 | 0.00 | 0.00 | 73 | 1005.7 |
| 20260508213810 | 31 | 123 | 3.2 | 9.7 | 0.00 | 0.00 | 0.00 | 73 | 1005.8 |
| 20260508213308 | 31 | 125 | 3.2 | 9.7 | 0.00 | 0.00 | 0.00 | 72 | 1005.8 |
| 20260508212308 | 31 | 149 | 3.2 | 9.7 | 0.00 | 0.00 | 0.00 | 72 | 1005.9 |
| 20260508211811 | 31 | 169 | 3.2 | 9.7 | 0.00 | 0.00 | 0.00 | 72 | 1006.0 |
| 20260508211308 | 31 | 107 | 3.2 | 9.7 | 0.00 | 0.00 | 0.00 | 72 | 1006.1 |
| 20260508210813 | 31 | 89 | 3.2 | 9.7 | 0.00 | 0.00 | 0.00 | 72 | 1006.2 |
| 20260508205811 | 31 | 125 | 3.2 | 11.3 | 0.00 | 0.00 | 0.00 | 71 | 1006.4 |
| 20260508205051 | 31 | 181 | 3.2 | 9.7 | 0.00 | 0.00 | 0.00 | 71 | 1006.5 |
| 20260508204557 | 31 | 135 | 3.2 | 8.0 | 0.00 | 0.00 | 0.00 | 71 | 1006.5 |
| 20260508204042 | 31 | 197 | 3.2 | 9.7 | 0.00 | 0.00 | 0.00 | 70 | 1006.5 |
| 20260508203538 | 31 | 156 | 3.2 | 9.7 | 0.00 | 0.00 | 0.00 | 70 | 1006.7 |
| 20260508203042 | 31 | 125 | 3.2 | 11.3 | 0.00 | 0.00 | 0.00 | 68 | 1006.7 |
| 20260508202538 | 31 | 0 | 3.2 | 11.3 | 0.00 | 0.00 | 0.00 | 69 | 1006.8 |
| 20260508202040 | 31 | 122 | 3.2 | 8.0 | 0.00 | 0.00 | 0.00 | 69 | 1006.9 |
| 20260508201455 | 31 | 193 | 3.2 | 8.0 | 0.00 | 0.00 | 0.00 | 69 | 1006.8 |
| 20260508200951 | 30 | 145 | 3.2 | 11.3 | 0.00 | 0.00 | 0.00 | 70 | 1006.9 |
| 20260508200448 | 31 | 161 | 3.2 | 11.3 | 0.00 | 0.00 | 0.00 | 70 | 1006.9 |
| 20260508195949 | 31 | 177 | 3.2 | 8.0 | 0.00 | 0.00 | 0.00 | 69 | 1007.0 |
| 20260508195449 | 31 | 135 | 3.2 | 8.0 | 0.00 | 0.00 | 0.00 | 69 | 1007.0 |
| 20260508194946 | 31 | 89 | 3.2 | 8.0 | 0.00 | 0.00 | 0.00 | 68 | 1007.1 |
| 20260508194446 | 31 | 134 | 3.2 | 8.0 | 0.00 | 0.00 | 0.00 | 69 | 1007.2 |
| 20260508193946 | 30 | 142 | 3.2 | 9.7 | 0.00 | 0.00 | 0.00 | 70 | 1007.1 |
| 20260508193446 | 30 | 13 | 3.2 | 9.7 | 0.00 | 0.00 | 0.00 | 71 | 1007.2 |
| 20260508192946 | 30 | 64 | 3.2 | 9.7 | 0.00 | 0.00 | 0.00 | 71 | 1007.2 |
| 20260508192446 | 31 | 55 | 4.8 | 12.9 | 0.00 | 0.00 | 0.00 | 71 | 1007.3 |
| 20260508191446 | 31 | 143 | 3.2 | 9.7 | 0.00 | 0.00 | 0.00 | 69 | 1007.5 |
| 20260508190946 | 31 | 209 | 3.2 | 9.7 | 0.00 | 0.00 | 0.00 | 69 | 1007.6 |
| 20260508190447 | 31 | 115 | 3.2 | 9.7 | 0.00 | 0.00 | 0.00 | 67 | 1007.6 |
| 20260508185947 | 31 | 125 | 3.2 | 9.7 | 0.00 | 0.00 | 0.00 | 68 | 1007.7 |
| 20260508184946 | 30 | 171 | 3.2 | 8.0 | 0.00 | 0.00 | 0.00 | 72 | 1007.8 |
| 20260508184443 | 30 | 109 | 3.2 | 11.3 | 0.00 | 0.00 | 0.00 | 72 | 1007.9 |
| 20260508183945 | 30 | 114 | 3.2 | 11.3 | 0.00 | 0.00 | 0.00 | 74 | 1008.0 |
| 20260508183441 | 30 | 73 | 3.2 | 11.3 | 0.00 | 0.00 | 0.00 | 75 | 1008.2 |
| 20260508182941 | 30 | 182 | 3.2 | 11.3 | 0.00 | 0.00 | 0.00 | 75 | 1008.3 |
| 20260508182441 | 30 | 124 | 4.8 | 12.9 | 0.00 | 0.00 | 0.00 | 74 | 1008.3 |
| 20260508181941 | 30 | 138 | 4.8 | 12.9 | 0.00 | 0.00 | 0.00 | 74 | 1008.4 |
| 20260508180941 | 29 | 186 | 3.2 | 8.0 | 0.00 | 0.00 | 0.00 | 76 | 1008.6 |
| 20260508180441 | 29 | 138 | 4.8 | 9.7 | 0.00 | 0.00 | 0.00 | 76 | 1008.7 |
| 20260508175941 | 28 | 17 | 3.2 | 9.7 | 0.00 | 0.00 | 0.00 | 79 | 1008.8 |